Time;durP1;ratioP1;P1;durP2;ratioP2;P2;SDS_P1;SDS_P2;PMS_P1;PMS_P2;Temp;Humidity;BMP_temperature;BMP_pressure;BME280_temperature;BME280_humidity;BME280_pressure;Samples;Min_cycle;Max_cycle;Signal;HPM_P1;HPM_P2
2022/11/21 00:00:21;;;;;;;17.20;12.70;;;6.30;99.90;;;;;;5106510;28;20440;-42
2022/11/21 00:02:47;;;;;;;15.00;11.73;;;6.40;99.90;;;;;;5103769;27;20200;-40
2022/11/21 00:05:12;;;;;;;16.33;11.40;;;6.20;99.90;;;;;;5106058;27;20476;-42
2022/11/21 00:07:38;;;;;;;16.63;12.43;;;6.10;99.90;;;;;;5088721;28;20429;-41
2022/11/21 00:10:04;;;;;;;15.77;11.87;;;6.20;99.90;;;;;;5095784;27;20592;-42
2022/11/21 00:12:30;;;;;;;18.33;13.63;;;6.10;99.90;;;;;;5111387;27;20180;-41
2022/11/21 00:14:55;;;;;;;17.20;12.80;;;6.10;99.90;;;;;;5088429;28;20860;-39
2022/11/21 00:17:21;;;;;;;17.50;13.40;;;6.10;99.90;;;;;;5088813;28;20615;-41
2022/11/21 00:19:46;;;;;;;17.50;13.20;;;6.10;99.90;;;;;;5088146;28;20188;-41
2022/11/21 00:22:12;;;;;;;16.50;12.97;;;6.20;99.90;;;;;;5088699;28;20194;-41
2022/11/21 00:24:38;;;;;;;17.57;13.70;;;6.00;99.90;;;;;;5108984;27;20201;-42
2022/11/21 00:27:04;;;;;;;18.30;12.77;;;5.90;99.90;;;;;;5103345;27;21046;-41
2022/11/21 00:29:29;;;;;;;17.23;12.53;;;6.10;99.90;;;;;;5088134;28;20180;-40
2022/11/21 00:31:55;;;;;;;16.97;12.27;;;5.90;99.90;;;;;;5088500;28;20279;-39
2022/11/21 00:34:21;;;;;;;18.60;13.27;;;6.10;99.90;;;;;;5087149;28;20575;-41
2022/11/21 00:36:46;;;;;;;20.13;13.30;;;6.10;99.90;;;;;;5093508;28;20192;-41
2022/11/21 00:39:12;;;;;;;19.97;13.13;;;6.00;99.90;;;;;;5108495;28;20270;-41
2022/11/21 00:41:37;;;;;;;18.60;13.93;;;5.80;99.90;;;;;;5108285;28;20264;-41
2022/11/21 00:44:03;;;;;;;20.57;13.00;;;5.80;99.90;;;;;;5108386;28;20180;-40
2022/11/21 00:46:29;;;;;;;17.80;13.23;;;5.70;99.90;;;;;;5108717;28;20215;-40
2022/11/21 00:48:54;;;;;;;20.40;14.07;;;5.80;99.90;;;;;;5108335;28;20226;-42
2022/11/21 00:51:20;;;;;;;21.10;12.97;;;5.70;99.90;;;;;;5108562;28;20218;-40
2022/11/21 00:53:46;;;;;;;16.47;12.77;;;5.70;99.90;;;;;;5108217;28;20176;-41
2022/11/21 00:56:12;;;;;;;19.97;14.30;;;5.60;99.90;;;;;;5108163;28;20243;-40
2022/11/21 00:58:38;;;;;;;19.00;14.50;;;5.70;99.90;;;;;;5108335;28;20429;-40
2022/11/21 01:01:10;;;;;;;17.07;13.20;;;6.00;99.90;;;;;;5108665;28;20436;-41
2022/11/21 01:03:36;;;;;;;18.90;13.50;;;5.70;99.90;;;;;;5108254;28;20184;-41
2022/11/21 01:06:10;;;;;;;22.10;14.37;;;5.80;99.90;;;;;;5108311;28;20508;-39
2022/11/21 01:08:38;;;;;;;20.77;14.60;;;5.80;99.90;;;;;;5107865;28;20479;-38
2022/11/21 01:11:05;;;;;;;20.60;14.73;;;5.60;99.90;;;;;;5108518;28;20776;-39
2022/11/21 01:13:32;;;;;;;20.43;14.87;;;5.80;99.90;;;;;;5108048;28;20413;-41
2022/11/21 01:16:03;;;;;;;21.17;15.47;;;5.70;99.90;;;;;;5108533;28;20421;-40
2022/11/21 01:18:29;;;;;;;25.17;16.50;;;5.70;99.90;;;;;;5107923;28;20421;-41
2022/11/21 01:20:59;;;;;;;24.77;15.53;;;5.90;99.90;;;;;;5108303;28;20738;-41
2022/11/21 01:23:24;;;;;;;22.57;15.63;;;5.70;99.90;;;;;;5107760;28;20199;-40
2022/11/21 01:25:50;;;;;;;26.43;17.67;;;5.80;99.90;;;;;;5105940;27;20465;-41
2022/11/21 01:28:15;;;;;;;22.00;15.40;;;5.80;99.90;;;;;;5108233;28;20187;-41
2022/11/21 01:30:41;;;;;;;23.40;15.63;;;5.60;99.90;;;;;;5107965;28;20231;-41
2022/11/21 01:33:07;;;;;;;23.40;17.03;;;5.60;99.90;;;;;;5106384;28;20191;-39
2022/11/21 01:35:32;;;;;;;21.97;16.20;;;5.70;99.90;;;;;;5107048;28;20265;-40
2022/11/21 01:37:58;;;;;;;22.30;16.20;;;5.60;99.90;;;;;;5108284;28;20196;-40
2022/11/21 01:40:23;;;;;;;24.20;17.20;;;5.70;99.90;;;;;;5110641;28;20245;-41
2022/11/21 01:42:57;;;;;;;25.23;17.03;;;5.60;99.90;;;;;;5112028;28;20211;-39
2022/11/21 01:46:00;;;;;;;25.30;16.70;;;5.70;99.90;;;;;;5111974;28;20227;-39
2022/11/21 01:48:38;;;;;;;23.83;16.50;;;5.60;99.90;;;;;;5110300;28;20417;-39
2022/11/21 01:51:35;;;;;;;26.67;17.33;;;5.60;99.90;;;;;;5112353;28;20452;-39
2022/11/21 01:54:05;;;;;;;21.60;16.87;;;5.70;99.90;;;;;;5112092;28;20417;-40
2022/11/21 01:56:40;;;;;;;25.77;16.70;;;5.70;99.90;;;;;;5112427;28;20417;-41
2022/11/21 01:59:09;;;;;;;30.47;18.13;;;5.70;99.90;;;;;;5111641;27;20409;-41
2022/11/21 02:01:36;;;;;;;27.27;17.00;;;5.50;99.90;;;;;;5111844;28;20922;-40
2022/11/21 02:04:05;;;;;;;24.77;17.60;;;5.70;99.90;;;;;;5111905;28;20422;-39
2022/11/21 02:06:32;;;;;;;25.27;16.97;;;5.70;99.90;;;;;;5111596;28;20480;-41
2022/11/21 02:09:00;;;;;;;24.57;17.00;;;5.60;99.90;;;;;;5111228;27;20405;-41
2022/11/21 02:11:31;;;;;;;25.20;17.50;;;5.60;99.90;;;;;;5109948;28;20463;-39
2022/11/21 02:13:58;;;;;;;24.03;18.10;;;5.80;99.90;;;;;;5111620;28;20414;-39
2022/11/21 02:16:25;;;;;;;25.17;16.60;;;5.80;99.90;;;;;;5111765;28;20441;-41
2022/11/21 02:18:51;;;;;;;23.30;16.90;;;5.90;99.90;;;;;;5111324;28;20772;-41
2022/11/21 02:21:38;;;;;;;24.17;16.27;;;5.70;99.90;;;;;;5111485;28;20421;-41
2022/11/21 02:24:31;;;;;;;24.33;17.50;;;5.50;99.90;;;;;;5110990;28;20504;-41
2022/11/21 02:26:59;;;;;;;28.47;18.17;;;5.70;99.90;;;;;;5104952;28;20521;-41
2022/11/21 02:29:25;;;;;;;26.57;16.70;;;5.50;99.90;;;;;;5110912;28;20410;-37
2022/11/21 02:31:51;;;;;;;23.47;16.50;;;5.50;99.90;;;;;;5111036;28;20478;-40
2022/11/21 02:34:17;;;;;;;25.40;18.20;;;5.70;99.90;;;;;;5109700;28;20425;-41
2022/11/21 02:36:46;;;;;;;28.93;18.20;;;5.60;99.90;;;;;;5111144;28;20509;-40
2022/11/21 02:39:41;;;;;;;27.97;17.30;;;5.70;99.90;;;;;;5110958;28;20260;-41
2022/11/21 02:42:27;;;;;;;25.23;18.00;;;5.50;99.90;;;;;;5101730;28;20762;-41
2022/11/21 02:45:08;;;;;;;27.10;17.17;;;5.60;99.90;;;;;;5110944;28;20435;-40
2022/11/21 02:47:36;;;;;;;26.97;17.87;;;5.40;99.90;;;;;;5110822;28;20971;-40
2022/11/21 02:50:12;;;;;;;28.77;19.07;;;5.60;99.90;;;;;;5110590;28;20420;-40
2022/11/21 02:52:37;;;;;;;31.70;18.80;;;5.70;99.90;;;;;;5110586;28;20405;-40
2022/11/21 02:55:04;;;;;;;27.10;18.20;;;5.80;99.90;;;;;;5110598;28;20402;-39
2022/11/21 02:57:30;;;;;;;29.30;19.13;;;5.40;99.90;;;;;;5110771;28;20172;-41
2022/11/21 02:59:56;;;;;;;29.57;18.93;;;5.60;99.90;;;;;;5110313;28;20497;-40
2022/11/21 03:02:22;;;;;;;27.77;18.80;;;5.60;99.90;;;;;;5110727;28;20446;-41
2022/11/21 03:04:47;;;;;;;28.63;18.53;;;5.40;99.90;;;;;;5110294;28;20184;-39
2022/11/21 03:07:13;;;;;;;27.20;18.63;;;5.50;99.90;;;;;;5110686;28;20203;-39
2022/11/21 03:09:39;;;;;;;25.47;17.03;;;5.60;99.90;;;;;;5110226;28;20210;-38
2022/11/21 03:12:09;;;;;;;27.77;18.17;;;5.60;99.90;;;;;;5109244;28;20421;-38
2022/11/21 03:14:35;;;;;;;26.20;17.70;;;5.60;99.90;;;;;;5110131;27;20713;-39
2022/11/21 03:17:02;;;;;;;28.63;17.57;;;5.40;99.90;;;;;;5110535;28;20437;-37
2022/11/21 03:19:28;;;;;;;27.03;16.77;;;5.60;99.90;;;;;;5110038;28;20839;-40
2022/11/21 03:21:54;;;;;;;28.23;18.40;;;5.60;99.90;;;;;;5110243;28;20434;-40
2022/11/21 03:24:20;;;;;;;28.50;17.67;;;5.60;99.90;;;;;;5109617;28;20961;-39
2022/11/21 03:26:45;;;;;;;31.60;19.83;;;5.70;99.90;;;;;;5109842;28;20465;-38
2022/11/21 03:29:11;;;;;;;25.83;18.43;;;5.60;99.90;;;;;;5109739;28;20208;-41
2022/11/21 03:31:37;;;;;;;30.03;18.87;;;5.70;99.90;;;;;;5109836;28;20677;-40
2022/11/21 03:34:02;;;;;;;29.93;19.10;;;5.30;99.90;;;;;;5106932;28;20178;-38
2022/11/21 03:36:28;;;;;;;31.00;19.73;;;5.40;99.90;;;;;;5109752;28;20678;-40
2022/11/21 03:38:56;;;;;;;31.47;20.37;;;5.50;99.90;;;;;;5109409;28;20666;-39
2022/11/21 03:41:28;;;;;;;35.83;21.93;;;5.40;99.90;;;;;;5109725;28;20258;-40
2022/11/21 03:44:01;;;;;;;32.77;19.97;;;5.50;99.90;;;;;;5109655;28;20923;-41
2022/11/21 03:46:29;;;;;;;32.57;19.10;;;5.70;99.90;;;;;;5109698;27;20437;-38
2022/11/21 03:48:55;;;;;;;27.33;17.17;;;5.50;99.90;;;;;;5109817;28;20406;-40
2022/11/21 03:51:21;;;;;;;28.80;18.90;;;5.60;99.90;;;;;;5109603;28;20830;-40
2022/11/21 03:53:47;;;;;;;31.13;20.00;;;5.40;99.90;;;;;;5109489;28;20425;-39
2022/11/21 03:56:13;;;;;;;32.77;20.87;;;5.30;99.90;;;;;;5109863;28;20417;-39
2022/11/21 03:58:39;;;;;;;32.40;19.30;;;5.40;99.90;;;;;;5109372;28;20422;-39
2022/11/21 04:01:04;;;;;;;32.37;19.23;;;5.30;99.90;;;;;;5109184;28;20508;-40
2022/11/21 04:03:31;;;;;;;30.07;19.30;;;5.50;99.90;;;;;;5109203;28;20187;-40
2022/11/21 04:05:56;;;;;;;29.90;18.70;;;5.50;99.90;;;;;;5109214;28;20583;-40
2022/11/21 04:08:22;;;;;;;27.80;17.60;;;5.30;99.90;;;;;;5109227;28;20410;-39
2022/11/21 04:10:49;;;;;;;31.30;20.10;;;5.40;99.90;;;;;;5108159;28;20172;-39
2022/11/21 04:13:15;;;;;;;30.10;19.67;;;5.50;99.90;;;;;;5108932;28;20646;-41
2022/11/21 04:15:41;;;;;;;27.70;19.10;;;5.60;99.90;;;;;;5109359;28;20423;-40
2022/11/21 04:18:07;;;;;;;31.70;17.63;;;5.30;99.90;;;;;;5109169;28;20776;-37
2022/11/21 04:20:33;;;;;;;36.00;20.97;;;5.20;99.90;;;;;;5108582;28;20508;-38
2022/11/21 04:22:58;;;;;;;28.40;17.90;;;5.30;99.90;;;;;;5108748;28;20410;-40
2022/11/21 04:25:24;;;;;;;29.37;18.10;;;5.50;99.90;;;;;;5108914;28;20211;-39
2022/11/21 04:27:49;;;;;;;35.40;21.07;;;5.50;99.90;;;;;;5109138;28;20179;-39
2022/11/21 04:30:15;;;;;;;31.10;18.23;;;5.30;99.90;;;;;;5108544;28;20255;-41
2022/11/21 04:32:41;;;;;;;31.07;18.53;;;5.50;99.90;;;;;;5108103;28;20172;-37
2022/11/21 04:35:07;;;;;;;33.47;19.37;;;5.40;99.90;;;;;;5108337;28;20263;-40
2022/11/21 04:37:32;;;;;;;30.60;18.77;;;5.60;99.90;;;;;;5107787;28;20197;-37
2022/11/21 04:39:58;;;;;;;34.13;19.80;;;5.30;99.90;;;;;;5089995;28;20516;-41
2022/11/21 04:42:23;;;;;;;30.33;18.60;;;5.30;99.90;;;;;;5108992;28;20188;-38
2022/11/21 04:44:49;;;;;;;35.60;21.60;;;5.40;99.90;;;;;;5108571;28;20226;-39
2022/11/21 04:47:15;;;;;;;34.70;21.27;;;5.50;99.90;;;;;;5108761;28;20218;-40
2022/11/21 04:49:40;;;;;;;33.63;21.73;;;5.40;99.90;;;;;;5108007;28;20332;-41
2022/11/21 04:52:06;;;;;;;36.30;20.97;;;5.60;99.90;;;;;;5107606;28;20200;-41
2022/11/21 04:54:32;;;;;;;36.43;21.63;;;5.30;99.90;;;;;;5108153;28;20180;-40
2022/11/21 04:56:57;;;;;;;40.03;22.83;;;5.40;99.90;;;;;;5108635;28;20284;-39
2022/11/21 04:59:23;;;;;;;36.67;22.50;;;5.50;99.90;;;;;;5108301;28;20195;-38
2022/11/21 05:01:48;;;;;;;39.77;21.53;;;5.30;99.90;;;;;;5108521;28;20681;-40
2022/11/21 05:04:14;;;;;;;39.30;21.70;;;5.40;99.90;;;;;;5108092;28;20188;-38
2022/11/21 05:06:40;;;;;;;39.30;20.17;;;5.50;99.90;;;;;;5108235;28;20215;-41
2022/11/21 05:09:05;;;;;;;36.43;21.17;;;5.50;99.90;;;;;;5108333;28;20249;-41
2022/11/21 05:14:15;;;;;;;39.03;21.50;;;5.60;99.90;;;;;;5111183;28;20176;-39
2022/11/21 05:16:41;;;;;;;34.77;21.43;;;5.40;99.90;;;;;;5112326;28;20436;-36
2022/11/21 05:19:08;;;;;;;34.47;19.17;;;5.50;99.90;;;;;;5112529;28;20180;-41
2022/11/21 05:21:34;;;;;;;29.77;18.17;;;5.20;99.90;;;;;;5112578;28;20184;-39
2022/11/21 05:23:59;;;;;;;28.47;17.60;;;5.20;99.90;;;;;;5110921;28;20433;-41
2022/11/21 05:26:25;;;;;;;29.00;17.40;;;5.30;99.90;;;;;;5112314;28;20191;-38
2022/11/21 05:28:51;;;;;;;31.17;17.07;;;5.30;99.90;;;;;;5112022;27;20263;-38
2022/11/21 05:31:16;;;;;;;27.70;15.53;;;5.50;99.90;;;;;;5112297;28;20199;-40
2022/11/21 05:33:42;;;;;;;31.13;17.10;;;5.40;99.90;;;;;;5105497;28;20600;-41
2022/11/21 05:36:08;;;;;;;25.93;16.07;;;5.30;99.90;;;;;;5112256;28;20184;-41
2022/11/21 05:38:33;;;;;;;25.47;16.07;;;5.40;99.90;;;;;;5109662;28;20199;-40
2022/11/21 05:40:59;;;;;;;29.17;16.30;;;5.30;99.90;;;;;;5112287;28;20238;-40
2022/11/21 05:46:09;;;;;;;22.37;14.87;;;5.10;99.90;;;;;;5112186;28;20207;-38
2022/11/21 05:48:35;;;;;;;29.30;16.60;;;5.20;99.90;;;;;;5111050;28;20475;-40
2022/11/21 05:51:03;;;;;;;24.70;15.10;;;5.00;99.90;;;;;;5110757;28;20183;-40
2022/11/21 05:53:29;;;;;;;26.57;16.50;;;5.10;99.90;;;;;;5111659;28;20778;-39
2022/11/21 05:55:54;;;;;;;26.90;16.27;;;5.20;99.90;;;;;;5112232;28;20427;-41
2022/11/21 05:58:20;;;;;;;29.30;18.10;;;5.10;99.90;;;;;;5111627;28;20241;-41
2022/11/21 06:00:46;;;;;;;30.13;17.40;;;5.10;99.90;;;;;;5111676;28;20259;-38
2022/11/21 06:03:27;;;;;;;27.87;17.00;;;5.00;99.90;;;;;;5111700;28;20229;-40
2022/11/21 06:06:12;;;;;;;27.10;17.17;;;5.30;99.90;;;;;;5111668;28;20215;-40
2022/11/21 06:08:45;;;;;;;29.30;17.67;;;5.10;99.90;;;;;;5109726;28;20420;-38
2022/11/21 06:11:15;;;;;;;26.90;17.50;;;5.30;99.90;;;;;;5111213;28;20455;-38
2022/11/21 06:13:41;;;;;;;28.30;17.77;;;5.10;99.90;;;;;;5110126;28;20405;-39
2022/11/21 06:16:12;;;;;;;30.53;19.10;;;5.20;99.90;;;;;;5110160;28;20429;-38
2022/11/21 06:18:40;;;;;;;27.80;17.57;;;5.10;99.90;;;;;;5111581;27;20919;-41
2022/11/21 06:21:11;;;;;;;29.87;17.80;;;5.10;99.90;;;;;;5111462;28;20417;-39
2022/11/21 06:23:37;;;;;;;38.00;17.27;;;5.30;99.90;;;;;;5112356;28;20421;-40
2022/11/21 06:26:05;;;;;;;29.60;17.07;;;5.10;99.90;;;;;;5125025;27;20915;-40
2022/11/21 06:28:33;;;;;;;28.63;16.07;;;5.10;99.90;;;;;;5110897;28;20424;-40
2022/11/21 06:31:13;;;;;;;26.70;15.33;;;5.20;99.90;;;;;;5111346;28;20417;-39
2022/11/21 06:33:39;;;;;;;26.47;16.50;;;4.90;99.90;;;;;;5107774;28;20486;-41
2022/11/21 06:36:11;;;;;;;25.33;15.97;;;5.10;99.90;;;;;;5099530;28;20439;-40
2022/11/21 06:38:37;;;;;;;29.77;17.27;;;5.10;99.90;;;;;;5110483;28;20422;-36
2022/11/21 06:41:17;;;;;;;31.83;18.10;;;5.20;99.90;;;;;;5111178;28;20554;-40
2022/11/21 06:43:43;;;;;;;28.50;16.80;;;5.10;99.90;;;;;;5110713;28;20420;-41
2022/11/21 06:46:10;;;;;;;30.70;17.23;;;5.00;99.90;;;;;;5111182;28;20959;-39
2022/11/21 06:48:36;;;;;;;28.53;17.00;;;5.20;99.90;;;;;;5101895;28;20414;-38
2022/11/21 06:51:07;;;;;;;30.57;18.20;;;5.10;99.90;;;;;;5111422;28;20449;-41
2022/11/21 06:53:33;;;;;;;30.03;17.70;;;4.90;99.90;;;;;;5110402;27;20417;-41
2022/11/21 06:56:02;;;;;;;30.10;17.60;;;4.90;99.90;;;;;;5110885;28;20418;-40
2022/11/21 06:58:28;;;;;;;27.73;17.23;;;5.10;99.90;;;;;;5110073;28;20421;-38
2022/11/21 07:00:54;;;;;;;33.67;18.03;;;4.80;99.90;;;;;;5106148;28;20425;-39
2022/11/21 07:03:21;;;;;;;33.63;18.20;;;4.90;99.90;;;;;;5110144;28;20191;-40
2022/11/21 07:05:47;;;;;;;30.70;17.93;;;5.10;99.90;;;;;;5110708;28;21027;-40
2022/11/21 07:08:13;;;;;;;31.17;18.60;;;5.20;99.90;;;;;;5109043;28;20815;-41
2022/11/21 07:10:38;;;;;;;30.07;17.23;;;4.90;99.90;;;;;;5106941;28;20513;-39
2022/11/21 07:13:22;;;;;;;31.93;17.93;;;5.10;99.90;;;;;;5109398;28;20761;-39
2022/11/21 07:15:51;;;;;;;34.33;19.33;;;5.10;99.90;;;;;;5103749;28;20547;-40
2022/11/21 07:18:18;;;;;;;34.40;18.70;;;4.90;99.90;;;;;;5109739;27;20926;-38
2022/11/21 07:20:43;;;;;;;31.50;16.80;;;5.30;99.90;;;;;;5100609;28;20414;-38
2022/11/21 07:23:09;;;;;;;30.00;17.97;;;5.30;99.90;;;;;;5111058;28;20923;-40
2022/11/21 07:25:35;;;;;;;31.47;18.07;;;5.30;99.90;;;;;;5125600;27;20195;-39
2022/11/21 07:28:02;;;;;;;26.53;16.20;;;5.00;99.90;;;;;;5109253;28;20168;-39
2022/11/21 07:30:28;;;;;;;28.47;16.27;;;4.90;99.90;;;;;;5108981;28;20574;-41
2022/11/21 07:32:58;;;;;;;25.97;16.10;;;5.20;99.90;;;;;;5104508;28;20423;-38
2022/11/21 07:35:25;;;;;;;30.40;17.97;;;5.40;99.90;;;;;;5097144;28;20173;-40
2022/11/21 07:37:51;;;;;;;29.30;17.43;;;5.10;99.90;;;;;;5099196;28;20406;-39
2022/11/21 07:40:17;;;;;;;33.13;16.23;;;5.20;99.90;;;;;;5094102;28;20410;-40
2022/11/21 07:42:42;;;;;;;30.00;16.70;;;5.30;99.90;;;;;;5089154;28;20951;-37
2022/11/21 07:45:09;;;;;;;25.00;15.43;;;5.20;99.90;;;;;;5089284;28;20565;-38
2022/11/21 07:47:34;;;;;;;30.47;16.67;;;5.30;99.90;;;;;;5088150;28;20615;-39
2022/11/21 07:50:00;;;;;;;32.53;17.10;;;5.30;99.90;;;;;;5088883;28;20715;-38
2022/11/21 07:52:29;;;;;;;28.47;17.03;;;5.30;99.90;;;;;;5087590;28;20187;-40
2022/11/21 07:54:55;;;;;;;26.83;16.00;;;5.10;99.90;;;;;;5089009;28;20191;-40
2022/11/21 07:57:20;;;;;;;29.50;17.50;;;5.50;99.90;;;;;;5087676;28;20457;-41
2022/11/21 07:59:46;;;;;;;28.77;16.07;;;5.40;99.90;;;;;;5088840;28;20450;-40
2022/11/21 08:02:26;;;;;;;32.47;16.90;;;5.20;99.90;;;;;;5089502;28;20181;-40
2022/11/21 08:04:52;;;;;;;29.20;15.87;;;5.40;99.90;;;;;;5088873;28;20229;-39
2022/11/21 08:07:19;;;;;;;30.10;17.17;;;5.30;99.90;;;;;;5088892;28;20976;-40
2022/11/21 08:09:45;;;;;;;31.83;18.03;;;5.40;99.90;;;;;;5088783;28;20418;-40
2022/11/21 08:12:11;;;;;;;33.23;19.57;;;5.40;99.90;;;;;;5094635;28;20414;-40
2022/11/21 08:14:37;;;;;;;27.93;16.73;;;5.50;99.90;;;;;;5109071;28;20168;-39
2022/11/21 08:17:04;;;;;;;26.53;16.50;;;5.50;99.90;;;;;;5108995;28;20421;-41
2022/11/21 08:19:30;;;;;;;28.43;17.60;;;5.50;99.90;;;;;;5103253;28;20536;-40
2022/11/21 08:21:56;;;;;;;31.97;17.50;;;5.70;99.90;;;;;;5109101;28;20505;-40
2022/11/21 08:24:21;;;;;;;27.43;16.10;;;5.60;99.90;;;;;;5115354;27;20274;-40
2022/11/21 08:26:48;;;;;;;29.27;17.53;;;5.40;99.90;;;;;;5114968;27;20199;-40
2022/11/21 08:29:16;;;;;;;26.87;15.80;;;5.60;99.90;;;;;;5108442;28;20180;-38
2022/11/21 08:31:43;;;;;;;27.90;16.43;;;5.40;99.90;;;;;;5109007;28;20442;-40
2022/11/21 08:34:10;;;;;;;25.67;16.43;;;5.70;99.90;;;;;;5107203;28;20529;-39
2022/11/21 08:36:36;;;;;;;28.53;17.03;;;5.70;99.90;;;;;;5108689;28;20414;-36
2022/11/21 08:39:02;;;;;;;32.37;15.83;;;5.50;99.90;;;;;;5108506;28;20424;-41
2022/11/21 08:44:12;;;;;;;29.40;17.00;;;5.60;99.90;;;;;;5108722;28;20409;-41
2022/11/21 08:46:37;;;;;;;30.10;16.83;;;5.70;99.90;;;;;;5109239;28;20808;-39
2022/11/21 08:49:04;;;;;;;27.77;16.20;;;5.70;99.90;;;;;;5108089;28;20194;-37
2022/11/21 08:51:29;;;;;;;29.00;16.20;;;5.80;99.90;;;;;;5108721;28;20203;-38
2022/11/21 08:53:55;;;;;;;30.23;16.70;;;5.90;99.90;;;;;;5108353;28;20691;-39
2022/11/21 08:56:21;;;;;;;27.80;16.17;;;5.70;99.90;;;;;;5108772;28;20183;-39
2022/11/21 08:58:46;;;;;;;33.10;16.97;;;5.80;99.90;;;;;;5108166;28;20187;-39
2022/11/21 09:01:12;;;;;;;34.40;16.83;;;5.90;99.90;;;;;;5108598;28;20179;-40
2022/11/21 09:03:38;;;;;;;29.87;17.80;;;5.80;99.90;;;;;;5108580;28;20180;-41
2022/11/21 09:06:03;;;;;;;43.20;18.80;;;5.80;99.90;;;;;;5108376;28;20713;-40
2022/11/21 09:08:30;;;;;;;31.10;16.27;;;5.90;99.90;;;;;;5108265;28;20175;-41
2022/11/21 09:10:55;;;;;;;35.67;17.10;;;5.70;99.90;;;;;;5108526;28;20767;-41
2022/11/21 09:13:21;;;;;;;34.47;18.17;;;5.90;99.90;;;;;;5108346;28;20463;-41
2022/11/21 09:18:31;;;;;;;36.43;18.50;;;5.90;99.90;;;;;;5107804;28;20258;-40
2022/11/21 09:20:57;;;;;;;31.70;18.30;;;5.90;99.90;;;;;;5108390;28;20512;-40
2022/11/21 09:23:22;;;;;;;34.53;18.90;;;6.10;99.90;;;;;;5108199;28;20188;-39
2022/11/21 09:25:48;;;;;;;33.93;17.03;;;6.00;99.90;;;;;;5123837;27;20249;-42
2022/11/21 09:28:14;;;;;;;35.60;17.40;;;6.10;99.90;;;;;;5108365;28;20188;-39
2022/11/21 09:30:41;;;;;;;30.73;17.27;;;6.20;99.90;;;;;;5107879;28;20172;-39
2022/11/21 09:33:10;;;;;;;37.50;19.40;;;6.10;99.90;;;;;;5106816;28;20421;-41
2022/11/21 09:35:35;;;;;;;36.50;18.97;;;6.20;99.90;;;;;;5108457;28;20416;-41
2022/11/21 09:38:01;;;;;;;31.93;17.00;;;6.10;99.90;;;;;;5108328;28;20890;-40
2022/11/21 09:40:29;;;;;;;38.10;19.80;;;6.20;99.90;;;;;;5108004;28;20673;-41
2022/11/21 09:43:09;;;;;;;33.30;17.13;;;6.20;99.90;;;;;;5107972;28;20232;-38
2022/11/21 09:45:45;;;;;;;29.53;17.63;;;6.10;99.90;;;;;;5108001;28;20951;-38
2022/11/21 09:48:18;;;;;;;33.83;19.23;;;6.20;99.90;;;;;;5108336;28;20517;-41
2022/11/21 09:50:48;;;;;;;40.63;19.33;;;6.10;99.90;;;;;;5107838;28;20402;-39
2022/11/21 09:53:21;;;;;;;37.63;17.90;;;6.20;99.90;;;;;;5107944;28;20904;-40
2022/11/21 09:55:55;;;;;;;36.10;18.10;;;6.00;99.90;;;;;;5107572;28;20977;-42
2022/11/21 09:58:34;;;;;;;34.37;18.27;;;6.10;99.90;;;;;;5108073;28;20599;-36
2022/11/21 10:01:00;;;;;;;35.47;18.57;;;6.10;99.90;;;;;;5111818;28;20410;-42
2022/11/21 10:03:34;;;;;;;33.50;18.23;;;6.20;99.90;;;;;;5111360;28;20409;-40
2022/11/21 10:06:13;;;;;;;39.07;19.53;;;6.10;99.90;;;;;;5111816;28;20456;-40
2022/11/21 10:09:02;;;;;;;35.37;18.17;;;6.00;99.90;;;;;;5109855;28;20416;-41
2022/11/21 10:14:53;;;;;;;32.93;17.60;;;6.40;99.90;;;;;;5111089;28;20414;-39
2022/11/21 10:17:40;;;;;;;33.37;18.20;;;6.40;99.90;;;;;;5111929;28;20782;-41
2022/11/21 10:20:27;;;;;;;30.80;17.17;;;6.30;99.90;;;;;;5111082;28;20443;-39
2022/11/21 10:23:15;;;;;;;37.47;20.13;;;6.20;99.90;;;;;;5111051;28;20429;-39
2022/11/21 10:25:49;;;;;;;35.33;18.80;;;6.60;99.90;;;;;;5126719;27;20510;-40
2022/11/21 10:28:21;;;;;;;32.80;18.20;;;6.50;99.90;;;;;;5111816;28;20820;-39
2022/11/21 10:30:50;;;;;;;33.37;19.33;;;6.40;99.90;;;;;;5111408;28;20820;-39
2022/11/21 10:33:39;;;;;;;25.97;16.90;;;6.70;99.90;;;;;;5109495;28;20421;-38
2022/11/21 10:36:24;;;;;;;34.50;18.57;;;6.60;99.90;;;;;;5111042;28;20977;-41
2022/11/21 10:38:55;;;;;;;32.27;17.00;;;6.70;99.90;;;;;;5111061;28;21070;-40
2022/11/21 10:41:46;;;;;;;28.33;16.60;;;6.70;99.90;;;;;;5111355;28;20777;-39
2022/11/21 10:47:26;;;;;;;30.93;18.57;;;6.90;99.90;;;;;;5110963;28;20517;-35
2022/11/21 10:50:13;;;;;;;28.23;19.03;;;6.90;99.90;;;;;;5110491;28;20413;-40
2022/11/21 10:52:50;;;;;;;28.37;17.50;;;7.00;99.90;;;;;;5110650;28;20503;-38
2022/11/21 10:55:17;;;;;;;27.00;16.43;;;7.00;99.90;;;;;;5110868;27;20893;-41
2022/11/21 10:57:46;;;;;;;25.97;16.53;;;7.10;99.90;;;;;;5110793;28;20449;-37
2022/11/21 11:00:13;;;;;;;24.07;16.07;;;7.00;99.90;;;;;;5110483;28;20435;-40
2022/11/21 11:02:41;;;;;;;26.00;15.97;;;7.10;99.90;;;;;;5108897;28;20414;-39
2022/11/21 11:05:26;;;;;;;24.73;16.93;;;7.00;99.90;;;;;;5110654;28;20425;-40
2022/11/21 11:08:05;;;;;;;28.67;18.07;;;7.30;99.90;;;;;;5110508;28;20986;-41
2022/11/21 11:10:33;;;;;;;23.60;16.90;;;7.30;99.90;;;;;;5107810;28;20410;-41
2022/11/21 11:16:03;;;;;;;26.67;15.83;;;7.60;99.90;;;;;;5109211;28;20675;-40
2022/11/21 11:18:31;;;;;;;22.60;15.67;;;7.50;99.90;;;;;;5108587;28;20420;-41
2022/11/21 11:21:22;;;;;;;21.50;15.90;;;7.30;99.90;;;;;;5108888;28;21008;-40
2022/11/21 11:23:50;;;;;;;23.83;15.60;;;7.30;99.90;;;;;;5109728;28;20428;-41
2022/11/21 11:26:29;;;;;;;25.33;16.80;;;7.40;99.90;;;;;;5110255;28;20865;-41
2022/11/21 11:29:16;;;;;;;23.20;16.20;;;7.40;99.90;;;;;;5109685;28;20418;-41
2022/11/21 11:31:57;;;;;;;20.63;13.53;;;7.30;99.90;;;;;;5109969;28;20417;-41
2022/11/21 11:34:37;;;;;;;22.37;15.50;;;7.40;99.90;;;;;;5108772;28;20499;-41
2022/11/21 11:37:09;;;;;;;19.07;14.43;;;7.50;99.90;;;;;;5110477;28;20414;-41
2022/11/21 11:39:59;;;;;;;22.70;14.70;;;7.40;99.90;;;;;;5109821;28;20417;-39
2022/11/21 11:48:24;;;;;;;18.27;12.30;;;7.50;99.90;;;;;;5109298;28;20582;-39
2022/11/21 11:50:54;;;;;;;23.63;13.17;;;7.50;99.90;;;;;;5109809;28;20418;-41
2022/11/21 11:53:24;;;;;;;19.73;13.47;;;7.50;99.90;;;;;;5109764;28;20252;-42
2022/11/21 11:56:04;;;;;;;16.43;11.60;;;7.60;99.90;;;;;;5109609;28;20578;-40
2022/11/21 11:58:44;;;;;;;22.83;13.10;;;7.80;99.90;;;;;;5109367;28;20478;-40
2022/11/21 12:01:28;;;;;;;18.83;12.07;;;7.80;99.90;;;;;;5094980;28;21034;-40
2022/11/21 12:04:12;;;;;;;15.30;12.10;;;8.00;99.90;;;;;;5088701;28;20417;-40
2022/11/21 12:07:05;;;;;;;15.60;11.27;;;8.10;99.90;;;;;;5088954;28;20703;-40
2022/11/21 12:09:33;;;;;;;18.27;11.90;;;7.90;99.90;;;;;;5085627;28;20425;-37
2022/11/21 12:12:14;;;;;;;15.03;12.10;;;8.10;99.90;;;;;;5089133;28;20435;-40
2022/11/21 12:17:53;;;;;;;16.03;11.10;;;8.00;99.90;;;;;;5088624;28;20418;-40
2022/11/21 12:20:23;;;;;;;13.30;11.00;;;8.00;99.90;;;;;;5089207;28;20428;-38
2022/11/21 12:22:52;;;;;;;15.93;11.03;;;8.10;99.90;;;;;;5088492;28;20936;-39
2022/11/21 12:25:22;;;;;;;16.60;11.17;;;8.10;99.90;;;;;;5120228;27;20558;-37
2022/11/21 12:27:53;;;;;;;13.50;11.40;;;7.90;99.90;;;;;;5109004;28;20430;-40
2022/11/21 12:30:24;;;;;;;17.83;12.20;;;8.00;99.90;;;;;;5108721;28;20467;-41
2022/11/21 12:33:30;;;;;;;14.47;11.17;;;7.80;99.90;;;;;;5108001;28;20413;-41
2022/11/21 12:36:10;;;;;;;14.93;10.10;;;7.80;99.90;;;;;;5065622;28;20434;-41
2022/11/21 12:38:46;;;;;;;19.93;12.37;;;8.00;99.90;;;;;;5065267;28;20430;-41
2022/11/21 12:44:39;;;;;;;18.47;10.87;;;8.00;99.90;;;;;;5108786;28;20586;-41
2022/11/21 12:56:49;;;;;;;15.60;11.07;;;7.90;99.90;;;;;;5108750;28;20441;-40
2022/11/21 12:59:15;;;;;;;15.13;10.97;;;8.10;99.90;;;;;;5099247;28;20831;-39
2022/11/21 13:01:52;;;;;;;13.03;10.53;;;8.00;99.90;;;;;;5098976;28;20425;-41
2022/11/21 13:04:27;;;;;;;15.07;11.43;;;8.00;99.90;;;;;;5101691;28;20176;-40
2022/11/21 13:06:55;;;;;;;16.50;11.17;;;8.00;99.90;;;;;;5108905;28;20469;-41
2022/11/21 13:09:23;;;;;;;13.93;10.93;;;8.20;99.90;;;;;;5108102;28;20431;-41
2022/11/21 13:12:13;;;;;;;12.50;10.97;;;8.10;99.90;;;;;;5107053;28;20410;-41
2022/11/21 13:15:13;;;;;;;14.20;10.90;;;8.10;99.90;;;;;;5108175;28;20413;-37
2022/11/21 13:17:42;;;;;;;16.73;11.27;;;8.10;99.90;;;;;;5108609;28;20471;-40
2022/11/21 13:20:31;;;;;;;14.97;11.27;;;8.10;99.90;;;;;;5108172;28;20439;-38
2022/11/21 13:22:58;;;;;;;14.50;10.40;;;8.10;99.90;;;;;;5108182;28;20445;-40
2022/11/21 13:25:30;;;;;;;12.07;9.90;;;8.20;99.90;;;;;;5123543;28;20424;-40
2022/11/21 13:28:18;;;;;;;12.60;9.30;;;8.10;99.90;;;;;;5108168;28;20942;-41
2022/11/21 13:30:48;;;;;;;15.83;10.20;;;8.10;99.90;;;;;;5107696;28;20462;-41
2022/11/21 13:33:38;;;;;;;13.27;9.63;;;8.00;99.90;;;;;;5107028;28;20416;-39